createdAt,value
2019-02-05T05:44:15.889Z,14.25
2019-02-05T05:59:27.915Z,15.70
2019-02-05T06:05:30.352Z,16.27
2019-02-05T06:07:58.927Z,16.02
2019-02-05T08:14:19.671Z,19.82
2019-02-05T08:16:48.337Z,21.62
2019-02-05T08:19:19.547Z,21.02
2019-02-05T08:21:50.419Z,24.85
2019-02-05T08:24:21.650Z,25.17
2019-02-05T08:26:52.178Z,25.12
2019-02-05T08:29:21.948Z,25.05
2019-02-05T08:31:51.084Z,22.85
2019-02-05T08:34:21.011Z,22.93
2019-02-05T08:36:50.203Z,22.42
2019-02-05T08:39:18.746Z,21.57
2019-02-05T08:41:47.567Z,22.80
2019-02-05T08:44:16.994Z,21.95
2019-02-05T08:46:47.109Z,19.07
2019-02-05T08:49:15.800Z,22.02
2019-02-05T08:51:44.394Z,22.93
2019-02-05T08:54:13.041Z,21.95
2019-02-05T08:56:41.759Z,21.68
2019-02-05T08:59:10.431Z,24.55
2019-02-05T09:01:39.413Z,20.80
2019-02-05T09:04:08.006Z,23.80
2019-02-05T09:06:36.620Z,20.00
2019-02-05T09:09:11.724Z,24.25
2019-02-05T09:11:40.415Z,22.73
2019-02-05T09:14:10.968Z,23.45
2019-02-05T09:16:39.259Z,20.48
2019-02-05T09:19:08.535Z,20.68
2019-02-05T09:21:37.202Z,19.35
2019-02-05T09:24:06.006Z,20.00
2019-02-05T09:26:34.663Z,21.37
2019-02-05T09:29:03.223Z,19.52
2019-02-05T09:31:31.921Z,21.77
2019-02-05T09:34:01.369Z,19.20
2019-02-05T09:36:29.940Z,20.65
2019-02-05T09:38:58.524Z,20.92
2019-02-05T09:41:27.100Z,18.60
2019-02-05T09:43:55.697Z,19.40
2019-02-05T09:46:24.360Z,18.20
2019-02-05T09:48:53.059Z,22.17
2019-02-05T09:51:23.276Z,19.20
2019-02-05T09:53:51.915Z,20.57
2019-02-05T09:56:21.491Z,18.98
2019-02-05T09:58:52.474Z,19.23
2019-02-05T10:01:22.009Z,18.80
2019-02-05T10:03:51.617Z,18.15
2019-02-05T10:06:23.811Z,19.90
2019-02-05T10:08:55.458Z,21.20
2019-02-05T10:11:25.646Z,20.35
2019-02-05T10:13:55.880Z,23.85
2019-02-05T10:16:25.021Z,21.12
2019-02-05T10:18:59.263Z,18.67
2019-02-05T10:21:30.248Z,20.60
2019-02-05T10:23:58.978Z,20.35
2019-02-05T10:26:29.124Z,21.00
2019-02-05T10:28:57.881Z,19.62
2019-02-05T10:31:27.600Z,20.10
2019-02-05T10:33:59.810Z,18.12
2019-02-05T10:36:31.101Z,17.42
2019-02-05T10:38:59.972Z,20.30
2019-02-05T10:41:30.586Z,20.25
2019-02-05T10:44:01.460Z,19.42
2019-02-05T10:46:30.280Z,18.30
2019-02-05T10:48:58.823Z,18.05
2019-02-05T10:51:30.384Z,18.52
2019-02-05T10:53:59.005Z,18.23
2019-02-05T10:56:27.585Z,18.00
2019-02-05T10:58:56.252Z,18.92
2019-02-05T11:01:24.838Z,16.87
2019-02-05T11:03:53.421Z,15.05
2019-02-05T11:06:22.086Z,15.85
2019-02-05T11:08:51.359Z,23.45
2019-02-05T11:11:20.672Z,17.00
2019-02-05T11:13:49.352Z,20.23
2019-02-05T11:16:17.894Z,16.30
2019-02-05T11:18:46.442Z,13.30
2019-02-05T11:21:15.031Z,15.40
2019-02-05T11:23:44.460Z,15.32
2019-02-05T11:26:13.400Z,15.23
2019-02-05T11:28:42.101Z,14.50
2019-02-05T11:31:10.734Z,16.05
2019-02-05T11:33:39.331Z,14.55
2019-02-05T11:36:09.522Z,13.30
2019-02-05T11:38:38.206Z,11.60
2019-02-05T11:41:06.876Z,12.70
2019-02-05T11:43:35.813Z,11.75
2019-02-05T11:46:04.576Z,11.95
2019-02-05T11:48:33.290Z,13.50
2019-02-05T11:51:01.919Z,15.38
2019-02-05T11:53:30.563Z,14.60
2019-02-05T11:55:59.205Z,12.70
2019-02-05T11:58:27.703Z,15.08
2019-02-05T12:00:58.254Z,14.20
2019-02-05T12:03:26.867Z,15.10
2019-02-05T12:05:55.558Z,14.68
2019-02-05T12:08:24.272Z,15.63
2019-02-05T12:10:52.896Z,15.48
2019-02-05T12:13:21.503Z,16.80
2019-02-05T12:15:50.105Z,16.40
2019-02-05T12:18:18.882Z,16.50
2019-02-05T12:20:47.402Z,18.82
2019-02-05T12:23:16.159Z,16.20
2019-02-05T12:25:44.721Z,15.95
2019-02-05T12:28:13.310Z,16.87
2019-02-05T12:30:45.417Z,15.78
2019-02-05T12:33:12.849Z,14.90
2019-02-05T12:35:41.424Z,16.40
2019-02-05T12:38:10.333Z,16.30
2019-02-05T12:40:38.965Z,19.77
2019-02-05T12:43:07.616Z,19.43
2019-02-05T12:45:38.015Z,18.00
2019-02-05T12:48:07.229Z,20.97
2019-02-05T12:50:41.567Z,19.47
2019-02-05T12:53:10.188Z,21.33
2019-02-05T12:55:38.885Z,21.90
2019-02-05T12:58:07.710Z,23.10
2019-02-05T13:00:38.818Z,21.63
2019-02-05T13:03:08.496Z,22.60
2019-02-05T13:05:37.486Z,23.50
2019-02-05T13:08:06.548Z,22.20
2019-02-05T13:10:37.745Z,21.13
2019-02-05T13:13:07.340Z,22.20
2019-02-05T13:15:36.251Z,20.33
2019-02-05T13:18:05.677Z,21.73
2019-02-05T13:20:34.242Z,21.53
2019-02-05T13:23:03.866Z,23.10
2019-02-05T13:25:33.271Z,22.17
2019-02-05T13:28:02.072Z,21.60
2019-02-05T13:30:34.760Z,21.10
2019-02-05T13:33:03.466Z,22.27
2019-02-05T13:35:32.489Z,23.00
2019-02-05T13:38:01.093Z,24.03
2019-02-05T13:40:30.396Z,21.43
2019-02-05T13:43:00.111Z,21.53
2019-02-05T13:45:33.657Z,24.80
2019-02-05T13:48:02.370Z,23.90
2019-02-05T13:50:33.761Z,23.97
2019-02-05T13:53:02.821Z,22.67
2019-02-05T13:55:36.125Z,24.00
2019-02-05T13:58:05.254Z,23.47
2019-02-05T14:00:42.374Z,24.57
2019-02-05T14:03:11.425Z,22.97
2019-02-05T14:05:40.203Z,25.50
2019-02-05T14:08:09.108Z,24.67
2019-02-05T14:10:42.574Z,23.93
2019-02-05T14:13:11.237Z,24.53
2019-02-05T14:15:42.334Z,25.50
2019-02-05T14:18:11.982Z,25.00
2019-02-05T14:20:40.627Z,24.87
2019-02-05T14:23:09.457Z,23.87
2019-02-05T14:25:38.167Z,26.30
2019-02-05T14:28:06.829Z,23.80
2019-02-05T14:30:49.775Z,24.23
2019-02-05T14:33:18.512Z,24.07
2019-02-05T14:35:47.234Z,25.20
2019-02-05T14:38:15.858Z,24.73
2019-02-05T14:40:44.577Z,24.50
2019-02-05T14:43:13.261Z,24.47
2019-02-05T14:45:42.175Z,23.60
2019-02-05T14:48:11.009Z,25.33
2019-02-05T14:50:44.994Z,23.57
2019-02-05T14:53:13.747Z,23.30
2019-02-05T14:55:42.395Z,24.53
2019-02-05T14:58:12.022Z,26.00
2019-02-05T15:00:40.933Z,25.00
2019-02-05T15:03:11.388Z,22.53
2019-02-05T15:05:40.452Z,25.70
2019-02-05T15:08:09.715Z,24.67
2019-02-05T15:10:38.446Z,23.80
2019-02-05T15:13:07.279Z,23.90
2019-02-05T15:15:35.918Z,25.92
2019-02-05T15:18:06.177Z,25.45
2019-02-05T15:20:37.100Z,22.90
2019-02-05T15:23:06.836Z,23.98
2019-02-05T15:25:35.719Z,23.80
2019-02-05T15:28:04.984Z,23.22
2019-02-05T15:30:35.794Z,23.25
2019-02-05T15:33:12.451Z,21.95
2019-02-05T15:35:42.717Z,21.00
2019-02-05T15:38:11.358Z,24.05
2019-02-05T15:40:40.079Z,23.27
2019-02-05T15:43:08.800Z,22.35
2019-02-05T15:45:37.475Z,23.18
2019-02-05T15:48:06.224Z,24.05
2019-02-05T15:50:34.835Z,24.12
2019-02-05T15:53:03.457Z,23.73
2019-02-05T15:55:32.256Z,22.27
2019-02-05T15:58:01.060Z,24.37
2019-02-05T16:00:29.783Z,25.30
2019-02-05T16:02:58.604Z,24.65
2019-02-05T16:05:27.255Z,26.23
2019-02-05T16:07:55.931Z,27.20
2019-02-05T16:10:25.683Z,24.70
2019-02-05T16:12:54.331Z,25.43
2019-02-05T16:15:23.028Z,26.45
2019-02-05T16:17:51.714Z,28.02
2019-02-05T16:20:21.469Z,28.62
2019-02-05T16:22:51.006Z,27.20
2019-02-05T16:25:19.735Z,27.87
2019-02-05T16:27:48.327Z,28.70
2019-02-05T16:30:22.900Z,28.62
2019-02-05T16:32:51.619Z,29.07
2019-02-05T16:35:20.449Z,27.93
2019-02-05T16:37:49.733Z,28.77
2019-02-05T16:40:24.307Z,27.87
2019-02-05T16:42:53.179Z,29.87
2019-02-05T16:45:24.417Z,31.85
2019-02-05T16:47:53.178Z,29.80
2019-02-05T16:50:31.470Z,29.80
2019-02-05T16:53:00.272Z,29.40
2019-02-05T16:55:29.143Z,27.98
2019-02-05T16:57:57.795Z,29.75
2019-02-05T17:00:34.173Z,31.77
2019-02-05T17:03:02.889Z,32.08
2019-02-05T17:05:33.366Z,28.85
2019-02-05T17:08:02.067Z,30.12
2019-02-05T17:10:31.075Z,31.82
2019-02-05T17:13:00.415Z,31.85
2019-02-05T17:15:29.044Z,29.98
2019-02-05T17:17:57.707Z,30.80
2019-02-05T17:20:31.887Z,31.15
2019-02-05T17:23:03.659Z,31.95
2019-02-05T17:25:32.318Z,27.98
2019-02-05T17:28:02.602Z,21.65
2019-02-05T17:30:33.858Z,23.38
2019-02-05T17:33:03.170Z,25.75
2019-02-05T17:35:31.914Z,24.37
2019-02-05T17:38:02.117Z,22.70
2019-02-05T17:40:30.950Z,23.40
2019-02-05T17:42:59.727Z,23.20
2019-02-05T17:45:35.210Z,23.00
2019-02-05T17:48:09.012Z,22.10
2019-02-05T17:50:37.557Z,21.87
2019-02-05T17:53:07.097Z,22.82
2019-02-05T17:55:36.107Z,23.30
2019-02-05T17:58:09.001Z,18.07
2019-02-05T18:00:39.389Z,18.25
2019-02-05T18:03:08.032Z,14.53
2019-02-05T18:05:37.839Z,14.98
2019-02-05T18:08:08.038Z,16.42
2019-02-05T18:10:37.022Z,15.10
2019-02-05T18:13:07.141Z,17.48
2019-02-05T18:15:41.417Z,19.02
2019-02-05T18:18:11.798Z,20.55
2019-02-05T18:20:40.448Z,16.50
2019-02-05T18:23:09.677Z,15.08
2019-02-05T18:25:41.459Z,14.33
2019-02-05T18:28:10.371Z,17.40
2019-02-05T18:30:39.690Z,15.93
2019-02-05T18:33:09.306Z,15.20
2019-02-05T18:35:38.558Z,15.03
2019-02-05T18:38:12.588Z,18.02
2019-02-05T18:40:42.676Z,17.87
2019-02-05T18:43:11.686Z,17.90
2019-02-05T18:45:41.982Z,18.02
2019-02-05T18:48:14.038Z,19.37
2019-02-05T18:50:42.615Z,19.73
2019-02-05T18:53:11.819Z,20.48
2019-02-05T18:55:43.436Z,19.70
2019-02-05T18:58:12.776Z,17.52
2019-02-05T19:00:44.337Z,17.57
2019-02-05T19:03:15.876Z,17.37
2019-02-05T19:05:43.822Z,17.75
2019-02-05T19:08:15.857Z,17.12
2019-02-05T19:10:44.185Z,17.98
2019-02-05T19:13:12.964Z,17.40
2019-02-05T19:15:44.266Z,17.30
2019-02-05T19:18:15.843Z,16.27
2019-02-05T19:20:44.609Z,15.10
2019-02-05T19:23:13.250Z,18.12
2019-02-05T19:25:49.537Z,19.75
2019-02-05T19:28:22.694Z,15.65
2019-02-05T19:30:52.966Z,19.12
2019-02-05T19:33:27.145Z,16.82
2019-02-05T19:35:51.769Z,20.95
2019-02-05T19:41:14.233Z,20.30
2019-02-05T19:43:43.000Z,22.58
2019-02-05T19:46:28.718Z,19.87
2019-02-05T19:48:59.011Z,21.20
2019-02-05T19:51:27.711Z,18.10
2019-02-05T19:53:59.100Z,18.85
2019-02-05T19:56:37.890Z,18.05
2019-02-05T19:59:03.021Z,18.85
2019-02-05T20:01:31.800Z,20.00
2019-02-05T20:04:03.295Z,18.52
2019-02-05T20:06:33.265Z,20.30
2019-02-05T20:09:04.474Z,19.60
2019-02-05T20:11:34.799Z,17.40
2019-02-05T20:14:05.966Z,18.95
2019-02-05T20:16:37.745Z,22.22
2019-02-05T20:19:14.756Z,18.57
2019-02-05T20:21:43.955Z,16.85
2019-02-05T20:24:12.866Z,18.95
2019-02-05T20:26:41.710Z,19.70
2019-02-05T20:29:11.647Z,19.42
2019-02-05T20:31:40.432Z,22.35
2019-02-05T20:34:10.826Z,17.57
2019-02-05T20:36:42.340Z,22.42
2019-02-05T20:39:13.791Z,19.67
2019-02-05T20:41:43.310Z,19.67
2019-02-05T20:44:12.173Z,20.30
2019-02-05T20:46:42.957Z,22.10
2019-02-05T20:49:11.599Z,19.35
2019-02-05T20:51:40.304Z,18.67
2019-02-05T20:54:09.083Z,21.20
2019-02-05T20:56:37.852Z,18.62
2019-02-05T20:59:09.257Z,23.45
2019-02-05T21:01:37.908Z,21.73
2019-02-05T21:04:09.938Z,23.87
2019-02-05T21:06:40.570Z,23.15
2019-02-05T21:09:15.172Z,21.73
2019-02-05T21:11:45.084Z,23.45
2019-02-05T21:14:14.882Z,24.67
2019-02-05T21:16:43.682Z,22.30
2019-02-05T21:19:15.360Z,21.30
2019-02-05T21:21:51.200Z,21.90
2019-02-05T21:24:15.854Z,19.40
2019-02-05T21:26:44.550Z,20.57
2019-02-05T21:29:13.288Z,22.00
2019-02-05T21:31:43.206Z,21.40
2019-02-05T21:34:16.126Z,26.42
2019-02-05T21:36:42.321Z,28.62
2019-02-05T21:39:12.599Z,23.40
2019-02-05T21:41:44.463Z,23.42
2019-02-05T21:44:13.218Z,24.12
2019-02-05T21:46:41.936Z,26.30
2019-02-05T21:49:11.795Z,20.52
2019-02-05T21:51:43.228Z,22.35
2019-02-05T21:54:10.848Z,21.62
2019-02-05T21:56:42.044Z,25.60
2019-02-05T21:59:14.098Z,19.60
2019-02-05T22:01:42.931Z,19.45
2019-02-05T22:04:13.103Z,20.35
2019-02-05T22:06:43.484Z,19.77
2019-02-05T22:09:24.455Z,18.42
2019-02-05T22:11:53.226Z,17.98
2019-02-05T22:14:22.443Z,19.95
2019-02-05T22:16:52.244Z,20.90
2019-02-05T22:19:21.433Z,21.40
2019-02-05T22:21:50.080Z,19.80
2019-02-05T22:24:20.721Z,18.65
2019-02-05T22:26:49.453Z,19.65
2019-02-05T22:29:19.451Z,20.60
2019-02-05T22:31:49.918Z,20.10
2019-02-05T22:34:18.975Z,20.23
2019-02-05T22:36:56.578Z,19.15
2019-02-05T22:39:25.324Z,18.77
2019-02-05T22:41:55.735Z,19.05
2019-02-05T22:44:27.383Z,18.52
2019-02-05T22:46:56.591Z,17.82
2019-02-05T22:49:25.363Z,17.77
2019-02-05T22:51:54.005Z,21.17
2019-02-05T22:54:22.619Z,16.57
2019-02-05T22:56:51.269Z,17.02
2019-02-05T22:59:20.187Z,17.32
2019-02-05T23:01:51.154Z,16.87
2019-02-05T23:04:24.497Z,17.92
2019-02-05T23:06:56.977Z,15.65
2019-02-05T23:09:31.910Z,15.30
2019-02-05T23:12:20.124Z,16.23
2019-02-05T23:14:56.641Z,17.42
2019-02-05T23:17:25.870Z,16.93
2019-02-05T23:19:55.946Z,16.70
2019-02-05T23:22:24.646Z,18.45
2019-02-05T23:24:53.442Z,16.25
2019-02-05T23:27:22.576Z,17.27
2019-02-05T23:29:52.776Z,15.93
2019-02-05T23:32:21.387Z,17.00
2019-02-05T23:35:01.808Z,15.98
2019-02-05T23:37:21.956Z,15.40
2019-02-05T23:39:53.057Z,15.58
2019-02-05T23:42:24.448Z,15.03
2019-02-05T23:44:53.172Z,15.48
2019-02-05T23:47:23.372Z,14.30
2019-02-05T23:49:54.703Z,14.25
2019-02-05T23:52:24.334Z,16.45
2019-02-05T23:54:57.990Z,15.40
2019-02-05T23:57:29.050Z,13.53
